createdAt,value
2023-03-08T00:00:02.221Z,98398.28
2023-03-08T00:00:33.659Z,98397.16
2023-03-08T00:01:07.982Z,98393.78
2023-03-08T00:01:39.385Z,98396.81
2023-03-08T00:02:10.938Z,98394.91
2023-03-08T00:02:42.335Z,98388.31
2023-03-08T00:03:13.725Z,98397.78
2023-03-08T00:03:45.352Z,98394.91
2023-03-08T00:04:16.993Z,98394.75
2023-03-08T00:04:48.553Z,98396.81
2023-03-08T00:05:20.150Z,98393.28
2023-03-08T00:05:51.578Z,98395.53
2023-03-08T00:06:23.048Z,98388.50
2023-03-08T00:06:54.462Z,98392.50
2023-03-08T00:07:25.947Z,98389.63
2023-03-08T00:07:57.410Z,98398.75
2023-03-08T00:08:28.876Z,98394.75
2023-03-08T00:09:00.386Z,98389.63
2023-03-08T00:09:31.824Z,98395.22
2023-03-08T00:10:03.177Z,98394.41
2023-03-08T00:10:34.611Z,98391.03
2023-03-08T00:11:06.020Z,98397.63
2023-03-08T00:11:37.422Z,98399.69
2023-03-08T00:12:08.788Z,98400.03
2023-03-08T00:12:40.283Z,98400.81
2023-03-08T00:13:11.681Z,98398.09
2023-03-08T00:13:46.125Z,98394.56
2023-03-08T00:14:17.629Z,98402.75
2023-03-08T00:14:49.051Z,98397.63
2023-03-08T00:15:20.503Z,98402.28
2023-03-08T00:15:51.892Z,98399.88
2023-03-08T00:16:23.314Z,98400.53
2023-03-08T00:16:54.819Z,98400.19
2023-03-08T00:17:26.269Z,98402.59
2023-03-08T00:17:57.832Z,98406.44
2023-03-08T00:18:29.231Z,98408.53
2023-03-08T00:19:03.503Z,98397.63
2023-03-08T00:19:34.911Z,98403.06
2023-03-08T00:20:06.324Z,98393.78
2023-03-08T00:20:40.080Z,98398.28
2023-03-08T00:21:11.556Z,98395.53
2023-03-08T00:21:43.045Z,98401.78
2023-03-08T00:22:14.603Z,98403.72
2023-03-08T00:22:46.066Z,98400.03
2023-03-08T00:23:17.657Z,98393.16
2023-03-08T00:23:50.849Z,98398.59
2023-03-08T00:24:22.342Z,98391.88
2023-03-08T00:24:53.753Z,98399.41
2023-03-08T00:25:25.293Z,98392.03
2023-03-08T00:25:56.721Z,98391.03
2023-03-08T00:26:28.195Z,98401.16
2023-03-08T00:26:59.627Z,98399.88
2023-03-08T00:27:31.034Z,98394.09
2023-03-08T00:28:02.444Z,98391.38
2023-03-08T00:28:33.906Z,98399.53
2023-03-08T00:29:05.339Z,98398.09
2023-03-08T00:29:36.784Z,98401.47
2023-03-08T00:30:08.210Z,98398.75
2023-03-08T00:30:39.686Z,98404.66
2023-03-08T00:31:11.361Z,98407.41
2023-03-08T00:31:42.870Z,98400.34
2023-03-08T00:32:14.284Z,98403.06
2023-03-08T00:32:45.822Z,98397.16
2023-03-08T00:33:17.292Z,98404.84
2023-03-08T00:33:48.915Z,98399.41
2023-03-08T00:34:20.284Z,98400.53
2023-03-08T00:34:51.717Z,98397.47
2023-03-08T00:35:25.346Z,98407.25
2023-03-08T00:35:56.811Z,98403.53
2023-03-08T00:36:28.284Z,98403.88
2023-03-08T00:36:59.720Z,98402.28
2023-03-08T00:37:31.164Z,98405.00
2023-03-08T00:38:02.543Z,98399.06
2023-03-08T00:38:33.932Z,98408.53
2023-03-08T00:39:05.365Z,98402.59
2023-03-08T00:39:36.851Z,98397.63
2023-03-08T00:40:08.233Z,98409.31
2023-03-08T00:40:39.628Z,98399.88
2023-03-08T00:41:11.083Z,98401.47
2023-03-08T00:41:42.468Z,98394.41
2023-03-08T00:42:13.975Z,98397.63
2023-03-08T00:42:48.041Z,98396.81
2023-03-08T00:43:19.493Z,98394.28
2023-03-08T00:43:50.915Z,98398.78
2023-03-08T00:44:22.389Z,98398.13
2023-03-08T00:44:53.843Z,98394.75
2023-03-08T00:45:25.273Z,98398.59
2023-03-08T00:45:56.736Z,98397.00
2023-03-08T00:46:28.107Z,98389.28
2023-03-08T00:46:59.523Z,98396.03
2023-03-08T00:47:31.049Z,98395.88
2023-03-08T00:48:02.590Z,98395.41
2023-03-08T00:48:34.001Z,98396.19
2023-03-08T00:49:08.533Z,98399.72
2023-03-08T00:49:39.978Z,98393.63
2023-03-08T00:50:11.423Z,98393.28
2023-03-08T00:50:45.505Z,98393.94
2023-03-08T00:51:16.916Z,98392.81
2023-03-08T00:51:48.358Z,98394.59
2023-03-08T00:52:19.799Z,98394.28
2023-03-08T00:52:51.192Z,98397.47
2023-03-08T00:53:22.715Z,98398.91
2023-03-08T00:53:57.226Z,98392.16
2023-03-08T00:54:28.663Z,98392.16
2023-03-08T00:55:02.836Z,98395.53
2023-03-08T00:55:36.845Z,98395.06
2023-03-08T00:56:08.228Z,98391.53
2023-03-08T00:56:39.620Z,98388.03
2023-03-08T00:57:11.069Z,98386.91
2023-03-08T00:57:42.623Z,98396.34
2023-03-08T00:58:14.081Z,98396.66
2023-03-08T00:58:45.539Z,98391.88
2023-03-08T00:59:16.974Z,98396.53
2023-03-08T00:59:48.390Z,98395.06
2023-03-08T01:00:20.019Z,98389.63
2023-03-08T01:00:51.563Z,98397.78
2023-03-08T01:01:23.077Z,98397.00
2023-03-08T01:01:54.538Z,98401.00
2023-03-08T01:02:28.522Z,98401.31
2023-03-08T01:02:59.990Z,98392.03
2023-03-08T01:03:31.414Z,98400.66
2023-03-08T01:04:02.896Z,98400.66
2023-03-08T01:04:34.324Z,98406.91
2023-03-08T01:05:05.719Z,98401.31
2023-03-08T01:05:37.217Z,98402.28
2023-03-08T01:06:08.644Z,98401.47
2023-03-08T01:06:40.082Z,98401.47
2023-03-08T01:07:11.508Z,98392.50
2023-03-08T01:07:42.927Z,98380.31
2023-03-08T01:08:14.438Z,98387.69
2023-03-08T01:08:45.886Z,98391.22
2023-03-08T01:09:17.380Z,98384.66
2023-03-08T01:09:48.750Z,98387.38
2023-03-08T01:10:20.184Z,98389.78
2023-03-08T01:10:51.709Z,98381.91
2023-03-08T01:11:23.111Z,98387.38
2023-03-08T01:11:54.570Z,98390.25
2023-03-08T01:12:25.997Z,98397.94
2023-03-08T01:13:00.107Z,98385.78
2023-03-08T01:13:31.569Z,98391.53
2023-03-08T01:14:05.864Z,98388.69
2023-03-08T01:14:37.260Z,98383.22
2023-03-08T01:15:08.748Z,98382.09
2023-03-08T01:15:40.125Z,98390.59
2023-03-08T01:16:11.482Z,98387.56
2023-03-08T01:16:42.939Z,98389.47
2023-03-08T01:17:14.362Z,98386.09
2023-03-08T01:17:48.416Z,98381.78
2023-03-08T01:18:21.298Z,98389.63
2023-03-08T01:18:52.785Z,98383.38
2023-03-08T01:19:24.195Z,98379.66
2023-03-08T01:19:55.585Z,98383.84
2023-03-08T01:20:29.247Z,98377.28
2023-03-08T01:21:00.599Z,98384.66
2023-03-08T01:21:32.029Z,98381.44
2023-03-08T01:22:03.496Z,98378.72
2023-03-08T01:22:34.968Z,98376.00
2023-03-08T01:23:06.386Z,98369.41
2023-03-08T01:23:37.809Z,98377.28
2023-03-08T01:24:09.303Z,98375.66
2023-03-08T01:24:40.729Z,98374.53
2023-03-08T01:25:12.214Z,98373.75
2023-03-08T01:25:43.611Z,98374.88
2023-03-08T01:26:15.118Z,98370.53
2023-03-08T01:26:46.553Z,98373.75
2023-03-08T01:27:18.224Z,98371.34
2023-03-08T01:27:49.678Z,98372.63
2023-03-08T01:28:21.257Z,98367.66
2023-03-08T01:28:52.676Z,98371.34
2023-03-08T01:29:24.235Z,98365.56
2023-03-08T01:29:55.629Z,98365.44
2023-03-08T01:30:27.055Z,98367.03
2023-03-08T01:30:58.590Z,98368.94
2023-03-08T01:31:30.062Z,98373.94
2023-03-08T01:32:01.548Z,98366.22
2023-03-08T01:32:35.642Z,98366.22
2023-03-08T01:33:07.059Z,98368.47
2023-03-08T01:33:38.467Z,98357.25
2023-03-08T01:34:09.929Z,98365.09
2023-03-08T01:34:41.388Z,98368.94
2023-03-08T01:35:12.743Z,98355.00
2023-03-08T01:35:44.209Z,98365.75
2023-03-08T01:36:15.658Z,98365.44
2023-03-08T01:36:47.090Z,98367.81
2023-03-08T01:37:18.452Z,98365.09
2023-03-08T01:37:50.090Z,98359.97
2023-03-08T01:38:21.581Z,98359.66
2023-03-08T01:38:53.091Z,98358.53
2023-03-08T01:39:24.458Z,98356.13
2023-03-08T01:39:55.992Z,98356.59
2023-03-08T01:40:29.055Z,98355.97
2023-03-08T01:41:00.474Z,98351.47
2023-03-08T01:41:31.895Z,98353.06
2023-03-08T01:42:03.314Z,98354.69
2023-03-08T01:42:34.746Z,98350.81
2023-03-08T01:43:09.186Z,98353.69
2023-03-08T01:43:40.623Z,98355.94
2023-03-08T01:44:12.017Z,98353.88
2023-03-08T01:44:43.466Z,98352.28
2023-03-08T01:45:17.332Z,98354.34
2023-03-08T01:45:48.777Z,98356.28
2023-03-08T01:46:20.227Z,98350.34
2023-03-08T01:46:51.696Z,98350.03
2023-03-08T01:47:23.103Z,98347.63
2023-03-08T01:47:54.535Z,98350.34
2023-03-08T01:48:25.983Z,98344.91
2023-03-08T01:48:57.472Z,98342.97
2023-03-08T01:49:31.435Z,98345.38
2023-03-08T01:50:02.835Z,98343.31
2023-03-08T01:50:34.412Z,98340.09
2023-03-08T01:51:05.831Z,98343.31
2023-03-08T01:51:37.374Z,98333.06
2023-03-08T01:52:08.840Z,98334.97
2023-03-08T01:52:40.267Z,98338.03
2023-03-08T01:53:11.770Z,98338.03
2023-03-08T01:53:43.213Z,98335.78
2023-03-08T01:54:14.669Z,98341.69
2023-03-08T01:54:46.088Z,98337.38
2023-03-08T01:55:20.241Z,98335.78
2023-03-08T01:55:51.668Z,98339.78
2023-03-08T01:56:23.074Z,98340.91
2023-03-08T01:56:54.492Z,98340.09
2023-03-08T01:57:25.954Z,98336.91
2023-03-08T01:57:57.431Z,98333.38
2023-03-08T01:58:28.938Z,98338.19
2023-03-08T01:59:00.345Z,98335.78
2023-03-08T01:59:31.796Z,98338.03
2023-03-08T02:00:03.336Z,98342.50
2023-03-08T02:00:34.747Z,98340.56
2023-03-08T02:01:07.943Z,98337.06
2023-03-08T02:01:39.394Z,98333.53
2023-03-08T02:02:10.858Z,98342.50
2023-03-08T02:02:43.444Z,98331.28
2023-03-08T02:03:14.888Z,98333.06
2023-03-08T02:03:48.399Z,98335.78
2023-03-08T02:04:19.815Z,98329.53
2023-03-08T02:04:51.282Z,98327.59
2023-03-08T02:05:22.687Z,98334.31
2023-03-08T02:05:54.092Z,98325.03
2023-03-08T02:06:27.761Z,98327.28
2023-03-08T02:06:59.224Z,98334.66
2023-03-08T02:07:30.674Z,98329.69
2023-03-08T02:08:04.543Z,98330.81
2023-03-08T02:08:35.942Z,98328.06
2023-03-08T02:09:07.509Z,98325.81
2023-03-08T02:09:38.925Z,98325.81
2023-03-08T02:10:10.391Z,98324.03
2023-03-08T02:10:41.822Z,98320.19
2023-03-08T02:11:13.224Z,98328.69
2023-03-08T02:11:44.674Z,98320.06
2023-03-08T02:12:16.326Z,98316.38
2023-03-08T02:12:47.822Z,98309.47
2023-03-08T02:13:19.234Z,98321.97
2023-03-08T02:13:50.705Z,98318.78
2023-03-08T02:14:22.292Z,98312.19
2023-03-08T02:14:53.841Z,98313.34
2023-03-08T02:15:25.304Z,98316.06
2023-03-08T02:15:56.859Z,98319.09
2023-03-08T02:16:28.307Z,98319.75
2023-03-08T02:16:59.895Z,98312.38
2023-03-08T02:17:31.284Z,98316.38
2023-03-08T02:18:02.773Z,98315.59
2023-03-08T02:18:34.292Z,98320.22
2023-03-08T02:19:05.705Z,98316.38
2023-03-08T02:19:37.186Z,98317.66
2023-03-08T02:20:08.547Z,98311.25
2023-03-08T02:20:39.997Z,98309.34
2023-03-08T02:21:11.398Z,98310.78
2023-03-08T02:21:42.772Z,98308.53
2023-03-08T02:22:14.205Z,98302.28
2023-03-08T02:22:45.651Z,98299.69
2023-03-08T02:23:17.106Z,98304.34
2023-03-08T02:23:48.542Z,98306.28
2023-03-08T02:24:19.962Z,98310.13
2023-03-08T02:24:51.414Z,98309.47
2023-03-08T02:25:22.982Z,98309.81
2023-03-08T02:25:54.439Z,98313.81
2023-03-08T02:26:25.912Z,98311.25
2023-03-08T02:26:57.484Z,98313.84
2023-03-08T02:27:28.950Z,98314.31
2023-03-08T02:28:00.449Z,98309.19
2023-03-08T02:28:33.188Z,98308.53
2023-03-08T02:29:04.674Z,98301.16
2023-03-08T02:29:36.087Z,98297.63
2023-03-08T02:30:07.572Z,98297.63
2023-03-08T02:30:38.996Z,98301.16
2023-03-08T02:31:10.462Z,98300.03
2023-03-08T02:31:41.888Z,98299.69
2023-03-08T02:32:13.315Z,98296.97
2023-03-08T02:32:44.888Z,98299.56
2023-03-08T02:33:16.355Z,98295.84
2023-03-08T02:33:47.920Z,98296.03
2023-03-08T02:34:19.313Z,98294.59
2023-03-08T02:34:50.744Z,98291.06
2023-03-08T02:35:22.321Z,98293.47
2023-03-08T02:35:53.908Z,98289.13
2023-03-08T02:36:27.168Z,98288.34
2023-03-08T02:36:58.605Z,98285.94
2023-03-08T02:37:29.993Z,98285.59
2023-03-08T02:38:01.387Z,98290.59
2023-03-08T02:38:35.304Z,98284.00
2023-03-08T02:39:06.776Z,98286.75
2023-03-08T02:39:38.291Z,98288.34
2023-03-08T02:40:12.796Z,98285.28
2023-03-08T02:40:44.237Z,98281.28
2023-03-08T02:41:15.647Z,98282.88
2023-03-08T02:41:50.021Z,98285.13
2023-03-08T02:42:21.489Z,98282.41
2023-03-08T02:42:53.562Z,98282.41
2023-03-08T02:43:27.951Z,98276.50
2023-03-08T02:43:59.480Z,98277.44
2023-03-08T02:44:30.997Z,98278.25
2023-03-08T02:45:02.442Z,98278.25
2023-03-08T02:45:33.851Z,98278.25
2023-03-08T02:46:05.283Z,98274.38
2023-03-08T02:46:36.702Z,98271.66
2023-03-08T02:47:08.114Z,98268.13
2023-03-08T02:47:39.490Z,98272.00
2023-03-08T02:48:10.890Z,98275.84
2023-03-08T02:48:42.305Z,98264.63
2023-03-08T02:49:13.729Z,98274.06
2023-03-08T02:49:48.302Z,98274.38
2023-03-08T02:50:19.695Z,98281.44
2023-03-08T02:50:51.144Z,98277.09
2023-03-08T02:51:22.667Z,98274.84
2023-03-08T02:51:54.078Z,98271.66
2023-03-08T02:52:25.498Z,98277.91
2023-03-08T02:52:57.030Z,98268.59
2023-03-08T02:53:28.459Z,98278.25
2023-03-08T02:53:59.937Z,98272.78
2023-03-08T02:54:31.345Z,98276.63
2023-03-08T02:55:02.899Z,98280.97
2023-03-08T02:55:34.339Z,98272.78
2023-03-08T02:56:05.754Z,98275.19
2023-03-08T02:56:37.176Z,98274.06
2023-03-08T02:57:08.587Z,98277.91
2023-03-08T02:57:40.041Z,98272.47
2023-03-08T02:58:11.458Z,98274.38
2023-03-08T02:58:42.874Z,98277.91
2023-03-08T02:59:14.264Z,98274.06
2023-03-08T02:59:45.659Z,98272.13
2023-03-08T03:00:17.194Z,98269.72
2023-03-08T03:00:48.630Z,98271.34
2023-03-08T03:01:20.062Z,98271.34
2023-03-08T03:01:51.460Z,98266.69
2023-03-08T03:02:23.991Z,98260.56
2023-03-08T03:02:55.623Z,98264.75
2023-03-08T03:03:27.025Z,98263.63
2023-03-08T03:03:58.415Z,98262.03
2023-03-08T03:04:29.829Z,98267.00
2023-03-08T03:05:01.365Z,98262.69
2023-03-08T03:05:32.820Z,98272.13
2023-03-08T03:06:07.043Z,98270.06
2023-03-08T03:06:38.608Z,98268.13
2023-03-08T03:07:12.279Z,98267.00
2023-03-08T03:07:43.717Z,98260.44
2023-03-08T03:08:15.157Z,98263.16
2023-03-08T03:08:46.636Z,98259.16
2023-03-08T03:09:18.084Z,98259.97
2023-03-08T03:09:49.533Z,98259.50
2023-03-08T03:10:20.967Z,98259.50
2023-03-08T03:10:52.453Z,98255.31
2023-03-08T03:11:26.374Z,98262.34
2023-03-08T03:11:57.843Z,98255.31
2023-03-08T03:12:29.260Z,98256.44
2023-03-08T03:13:00.743Z,98265.41
2023-03-08T03:13:32.153Z,98256.09
2023-03-08T03:14:06.126Z,98264.28
2023-03-08T03:14:37.495Z,98264.28
2023-03-08T03:15:08.975Z,98265.09
2023-03-08T03:15:40.434Z,98272.13
2023-03-08T03:16:12.011Z,98268.13
2023-03-08T03:16:43.572Z,98265.88
2023-03-08T03:17:15.014Z,98270.22
2023-03-08T03:17:46.490Z,98270.06
2023-03-08T03:18:18.004Z,98268.94
2023-03-08T03:18:49.485Z,98263.47
2023-03-08T03:19:20.940Z,98262.69
2023-03-08T03:19:52.468Z,98273.59
2023-03-08T03:20:23.882Z,98266.88
2023-03-08T03:20:55.350Z,98268.78
2023-03-08T03:21:26.818Z,98269.13
2023-03-08T03:21:58.221Z,98263.81
2023-03-08T03:22:29.699Z,98258.69
2023-03-08T03:23:01.182Z,98263.81
2023-03-08T03:23:32.651Z,98263.47
2023-03-08T03:24:04.057Z,98261.09
2023-03-08T03:24:37.477Z,98261.09
2023-03-08T03:25:09.078Z,98264.28
2023-03-08T03:25:40.623Z,98265.88
2023-03-08T03:26:12.073Z,98258.84
2023-03-08T03:26:43.667Z,98255.31
2023-03-08T03:27:15.038Z,98261.09
2023-03-08T03:27:46.452Z,98255.63
2023-03-08T03:28:19.897Z,98255.63
2023-03-08T03:28:53.975Z,98255.31
2023-03-08T03:29:25.372Z,98254.50
2023-03-08T03:29:59.635Z,98259.97
2023-03-08T03:30:33.907Z,98257.25
2023-03-08T03:31:05.337Z,98254.84
2023-03-08T03:31:36.880Z,98254.84
2023-03-08T03:32:08.396Z,98256.09
2023-03-08T03:32:39.984Z,98262.69
2023-03-08T03:33:11.443Z,98262.34
2023-03-08T03:33:42.844Z,98261.09
2023-03-08T03:34:14.203Z,98267.34
2023-03-08T03:34:45.611Z,98257.25
2023-03-08T03:35:17.097Z,98256.28
2023-03-08T03:35:48.556Z,98263.81
2023-03-08T03:36:20.103Z,98270.06
2023-03-08T03:36:51.542Z,98262.22
2023-03-08T03:37:23.085Z,98264.94
2023-03-08T03:37:54.514Z,98271.66
2023-03-08T03:38:25.966Z,98264.63
2023-03-08T03:38:57.406Z,98263.81
2023-03-08T03:39:28.873Z,98268.13
2023-03-08T03:40:00.326Z,98263.47
2023-03-08T03:40:31.796Z,98259.97
2023-03-08T03:41:03.231Z,98266.53
2023-03-08T03:41:34.694Z,98264.94
2023-03-08T03:42:06.110Z,98261.41
2023-03-08T03:42:37.490Z,98256.44
2023-03-08T03:43:08.887Z,98260.28
2023-03-08T03:43:40.275Z,98250.19
2023-03-08T03:44:11.729Z,98254.84
2023-03-08T03:44:43.277Z,98247.78
2023-03-08T03:45:14.764Z,98246.34
2023-03-08T03:45:46.188Z,98250.66
2023-03-08T03:46:17.647Z,98245.88
2023-03-08T03:46:49.117Z,98247.94
2023-03-08T03:47:20.595Z,98249.53
2023-03-08T03:47:52.017Z,98250.66
2023-03-08T03:48:23.469Z,98250.66
2023-03-08T03:48:57.066Z,98249.88
2023-03-08T03:49:28.518Z,98247.94
2023-03-08T03:50:00.108Z,98247.13
2023-03-08T03:50:31.570Z,98256.44
2023-03-08T03:51:05.874Z,98251.78
2023-03-08T03:51:37.274Z,98249.06
2023-03-08T03:52:08.694Z,98252.59
2023-03-08T03:52:40.110Z,98249.88
2023-03-08T03:53:11.517Z,98245.22
2023-03-08T03:53:42.981Z,98247.13
2023-03-08T03:54:14.376Z,98247.94
2023-03-08T03:54:45.777Z,98246.34
2023-03-08T03:55:17.249Z,98255.63
2023-03-08T03:55:48.718Z,98240.88
2023-03-08T03:56:20.221Z,98250.19
2023-03-08T03:56:51.603Z,98243.16
2023-03-08T03:57:23.099Z,98242.50
2023-03-08T03:57:54.551Z,98240.88
2023-03-08T03:58:26.010Z,98248.75
2023-03-08T03:58:57.484Z,98243.28
2023-03-08T03:59:28.992Z,98243.28
2023-03-08T04:00:00.436Z,98243.63
2023-03-08T04:00:31.887Z,98247.47
2023-03-08T04:01:03.344Z,98246.34
2023-03-08T04:01:37.344Z,98248.59
2023-03-08T04:02:08.788Z,98243.94
2023-03-08T04:02:40.242Z,98246.34
2023-03-08T04:03:11.716Z,98251.00
2023-03-08T04:03:43.198Z,98242.50
2023-03-08T04:04:14.672Z,98247.94
2023-03-08T04:04:46.076Z,98248.75
2023-03-08T04:05:17.531Z,98248.75
2023-03-08T04:05:48.986Z,98247.13
2023-03-08T04:06:22.747Z,98249.06
2023-03-08T04:06:54.199Z,98241.34
2023-03-08T04:07:25.610Z,98251.78
2023-03-08T04:07:57.018Z,98248.25
2023-03-08T04:08:28.536Z,98248.75
2023-03-08T04:08:59.968Z,98243.63
2023-03-08T04:09:31.459Z,98244.41
2023-03-08T04:10:02.896Z,98240.56
2023-03-08T04:10:34.302Z,98237.03
2023-03-08T04:11:05.861Z,98235.44
2023-03-08T04:11:37.257Z,98228.88
2023-03-08T04:12:11.748Z,98229.19
2023-03-08T04:12:43.217Z,98231.59
2023-03-08T04:13:14.655Z,98228.06
2023-03-08T04:13:46.160Z,98232.25
2023-03-08T04:14:17.632Z,98232.25
2023-03-08T04:14:49.163Z,98231.91
2023-03-08T04:15:20.587Z,98230.78
2023-03-08T04:15:51.999Z,98230.47
2023-03-08T04:16:23.603Z,98231.59
2023-03-08T04:16:55.029Z,98229.53
2023-03-08T04:17:26.420Z,98231.13
2023-03-08T04:17:57.814Z,98228.41
2023-03-08T04:18:29.183Z,98229.19
2023-03-08T04:19:00.655Z,98231.25
2023-03-08T04:19:32.108Z,98230.47
2023-03-08T04:20:03.558Z,98233.19
2023-03-08T04:20:34.956Z,98230.47
2023-03-08T04:21:06.412Z,98227.75
2023-03-08T04:21:37.931Z,98226.13
2023-03-08T04:22:09.443Z,98227.28
2023-03-08T04:22:40.908Z,98225.81
2023-03-08T04:23:14.782Z,98216.84
2023-03-08T04:23:46.233Z,98213.31
2023-03-08T04:24:17.726Z,98212.84
2023-03-08T04:24:49.132Z,98211.25
2023-03-08T04:25:23.599Z,98210.91
2023-03-08T04:25:55.000Z,98215.25
2023-03-08T04:26:26.426Z,98208.19
2023-03-08T04:27:00.719Z,98206.41
2023-03-08T04:27:32.165Z,98211.38
2023-03-08T04:28:03.549Z,98204.34
2023-03-08T04:28:35.012Z,98202.75
2023-03-08T04:29:06.454Z,98202.75
2023-03-08T04:29:43.520Z,98191.06
2023-03-08T04:30:14.987Z,98190.25
2023-03-08T04:30:46.742Z,98194.56
2023-03-08T04:31:18.277Z,98186.72
2023-03-08T04:31:49.660Z,98189.13
2023-03-08T04:32:21.262Z,98191.38
2023-03-08T04:32:52.708Z,98202.41
2023-03-08T04:33:24.142Z,98195.03
2023-03-08T04:33:55.545Z,98194.25
2023-03-08T04:34:29.955Z,98196.50
2023-03-08T04:35:01.452Z,98189.59
2023-03-08T04:35:32.858Z,98188.00
2023-03-08T04:36:04.472Z,98188.78
2023-03-08T04:36:35.923Z,98186.88
2023-03-08T04:37:07.394Z,98188.00
2023-03-08T04:37:38.807Z,98191.06
2023-03-08T04:38:10.236Z,98185.59
2023-03-08T04:38:41.705Z,98189.91
2023-03-08T04:39:13.119Z,98190.72
2023-03-08T04:39:44.605Z,98186.41
2023-03-08T04:40:16.013Z,98189.59
2023-03-08T04:40:47.441Z,98185.59
2023-03-08T04:41:18.819Z,98190.25
2023-03-08T04:41:50.281Z,98193.78
2023-03-08T04:42:21.686Z,98187.53
2023-03-08T04:42:53.170Z,98183.69
2023-03-08T04:43:24.598Z,98181.75
2023-03-08T04:43:59.004Z,98181.59
2023-03-08T04:44:32.615Z,98180.94
2023-03-08T04:45:06.818Z,98179.69
2023-03-08T04:45:38.201Z,98178.22
2023-03-08T04:46:09.621Z,98176.28
2023-03-08T04:46:41.161Z,98182.53
2023-03-08T04:47:12.672Z,98175.50
2023-03-08T04:47:44.154Z,98175.50
2023-03-08T04:48:15.538Z,98177.09
2023-03-08T04:48:47.069Z,98182.53
2023-03-08T04:49:19.651Z,98175.50
2023-03-08T04:49:51.145Z,98180.28
2023-03-08T04:50:22.607Z,98182.53
2023-03-08T04:50:54.046Z,98166.19
2023-03-08T04:51:25.463Z,98168.91
2023-03-08T04:51:56.926Z,98172.31
2023-03-08T04:52:29.545Z,98171.97
2023-03-08T04:53:00.954Z,98171.66
2023-03-08T04:53:32.370Z,98170.06
2023-03-08T04:54:03.802Z,98171.31
2023-03-08T04:54:35.246Z,98170.06
2023-03-08T04:55:06.756Z,98175.50
2023-03-08T04:55:38.166Z,98170.53
2023-03-08T04:56:09.676Z,98171.66
2023-03-08T04:56:41.173Z,98176.28
2023-03-08T04:57:12.692Z,98174.03
2023-03-08T04:57:44.074Z,98177.09
2023-03-08T04:58:18.639Z,98167.66
2023-03-08T04:58:50.069Z,98176.28
2023-03-08T04:59:24.317Z,98170.53
2023-03-08T04:59:55.769Z,98166.19
2023-03-08T05:00:27.311Z,98170.53
2023-03-08T05:00:58.755Z,98164.28
2023-03-08T05:01:30.141Z,98169.25
2023-03-08T05:02:01.573Z,98167.31
2023-03-08T05:02:33.646Z,98171.66
2023-03-08T05:03:07.711Z,98161.53
2023-03-08T05:03:39.163Z,98167.47
2023-03-08T05:04:10.604Z,98163.13
2023-03-08T05:04:42.086Z,98164.75
2023-03-08T05:05:13.558Z,98168.25
2023-03-08T05:05:45.070Z,98160.41
2023-03-08T05:06:16.443Z,98164.06
2023-03-08T05:06:47.830Z,98165.06
2023-03-08T05:07:19.345Z,98157.69
2023-03-08T05:07:50.749Z,98160.75
2023-03-08T05:08:22.248Z,98154.84
2023-03-08T05:08:53.666Z,98158.81
2023-03-08T05:09:25.070Z,98156.09
2023-03-08T05:09:56.482Z,98155.31
2023-03-08T05:10:27.951Z,98154.50
2023-03-08T05:11:00.912Z,98152.56
2023-03-08T05:11:32.586Z,98154.63
2023-03-08T05:12:03.988Z,98149.53
2023-03-08T05:12:35.473Z,98153.69
2023-03-08T05:13:09.992Z,98157.22
2023-03-08T05:13:41.401Z,98150.97
2023-03-08T05:14:12.855Z,98156.22
2023-03-08T05:14:44.286Z,98146.00
2023-03-08T05:15:18.503Z,98149.84
2023-03-08T05:15:49.902Z,98144.41
2023-03-08T05:16:21.430Z,98154.16
2023-03-08T05:16:52.894Z,98147.13
2023-03-08T05:17:24.282Z,98147.13
2023-03-08T05:17:55.794Z,98138.94
2023-03-08T05:18:27.231Z,98142.47
2023-03-08T05:18:58.643Z,98136.22
2023-03-08T05:19:30.058Z,98144.06
2023-03-08T05:20:01.522Z,98142.47
2023-03-08T05:20:33.906Z,98140.09
2023-03-08T05:21:05.318Z,98143.28
2023-03-08T05:21:36.785Z,98143.28
2023-03-08T05:22:08.208Z,98137.81
2023-03-08T05:22:55.440Z,98143.28
2023-03-08T05:23:29.264Z,98146.31
2023-03-08T05:24:00.743Z,98145.53
2023-03-08T05:24:32.236Z,98145.06
2023-03-08T05:25:06.580Z,98143.94
2023-03-08T05:25:38.070Z,98134.63
2023-03-08T05:26:09.488Z,98132.38
2023-03-08T05:26:40.893Z,98140.09
2023-03-08T05:27:12.369Z,98137.03
2023-03-08T05:27:43.830Z,98133.50
2023-03-08T05:28:15.265Z,98133.03
2023-03-08T05:28:46.733Z,98131.09
2023-03-08T05:29:18.173Z,98127.25
2023-03-08T05:29:49.594Z,98141.69
2023-03-08T05:30:21.094Z,98129.97
2023-03-08T05:30:52.518Z,98130.78
2023-03-08T05:31:26.500Z,98125.31
2023-03-08T05:31:58.050Z,98128.72
2023-03-08T05:32:29.568Z,98132.25
2023-03-08T05:33:01.052Z,98123.25
2023-03-08T05:33:32.511Z,98117.81
2023-03-08T05:34:04.026Z,98121.00
2023-03-08T05:34:35.562Z,98121.00
2023-03-08T05:35:06.995Z,98118.28
2023-03-08T05:35:38.559Z,98129.19
2023-03-08T05:36:10.066Z,98128.06
2023-03-08T05:36:41.591Z,98128.06
2023-03-08T05:37:12.969Z,98121.81
2023-03-08T05:37:44.386Z,98131.91
2023-03-08T05:38:15.800Z,98124.88
2023-03-08T05:38:47.253Z,98122.13
2023-03-08T05:39:18.688Z,98120.22
2023-03-08T05:39:50.120Z,98120.22
2023-03-08T05:40:21.504Z,98118.94
2023-03-08T05:40:52.994Z,98120.22
2023-03-08T05:41:24.396Z,98117.50
2023-03-08T05:41:55.845Z,98128.38
2023-03-08T05:42:27.242Z,98122.94
2023-03-08T05:42:58.624Z,98121.00
2023-03-08T05:43:32.556Z,98117.81
2023-03-08T05:44:03.955Z,98116.34
2023-03-08T05:44:35.358Z,98119.41
2023-03-08T05:45:06.823Z,98117.16
2023-03-08T05:45:38.451Z,98117.50
2023-03-08T05:46:09.988Z,98112.38
2023-03-08T05:46:44.321Z,98116.34
2023-03-08T05:47:15.818Z,98117.50
2023-03-08T05:47:47.293Z,98119.09
2023-03-08T05:48:18.711Z,98115.56
2023-03-08T05:48:50.212Z,98118.63
2023-03-08T05:49:21.647Z,98112.38
2023-03-08T05:49:53.109Z,98110.78
2023-03-08T05:50:24.589Z,98113.16
2023-03-08T05:50:55.979Z,98116.34
2023-03-08T05:51:27.525Z,98106.44
2023-03-08T05:51:58.968Z,98106.13
2023-03-08T05:52:32.225Z,98108.06
2023-03-08T05:53:04.879Z,98109.19
2023-03-08T05:53:36.312Z,98106.44
2023-03-08T05:54:07.781Z,98104.53
2023-03-08T05:54:39.265Z,98103.41
2023-03-08T05:55:10.689Z,98103.72
2023-03-08T05:55:42.124Z,98100.66
2023-03-08T05:56:13.688Z,98097.63
2023-03-08T05:56:46.385Z,98102.94
2023-03-08T05:57:17.846Z,98094.44
2023-03-08T05:57:49.272Z,98098.75
2023-03-08T05:58:20.714Z,98097.16
2023-03-08T05:58:52.143Z,98097.94
2023-03-08T05:59:23.636Z,98096.34
2023-03-08T05:59:55.157Z,98093.28
2023-03-08T06:00:32.417Z,98092.03
2023-03-08T06:01:03.822Z,98094.09
2023-03-08T06:01:35.350Z,98088.31
2023-03-08T06:02:09.778Z,98096.50
2023-03-08T06:02:41.258Z,98094.09
2023-03-08T06:03:12.765Z,98092.16
2023-03-08T06:03:44.208Z,98084.00
2023-03-08T06:04:18.021Z,98084.31
2023-03-08T06:04:49.444Z,98088.97
2023-03-08T06:05:20.842Z,98078.53
2023-03-08T06:05:52.318Z,98091.25
2023-03-08T06:06:23.759Z,98077.63
2023-03-08T06:06:55.287Z,98085.66
2023-03-08T06:07:26.724Z,98080.69
2023-03-08T06:07:58.144Z,98082.94
2023-03-08T06:08:29.565Z,98075.22
2023-03-08T06:09:01.022Z,98083.53
2023-03-08T06:09:32.377Z,98070.56
2023-03-08T06:10:03.759Z,98076.50
2023-03-08T06:10:35.231Z,98075.34
2023-03-08T06:11:06.658Z,98074.44
2023-03-08T06:11:38.141Z,98067.84
2023-03-08T06:12:09.565Z,98070.91
2023-03-08T06:12:41.020Z,98069.44